Terminal Aerodrome Forecast
Issued by NWS Caribou, ME

Current Version | Previous Version | Text Only | Print | Product List | Glossary On
Versions: 1 2 3 4 5 6 7 8 9 10 11 12 13 14 15 16 17 18 19 20
000
FTUS41 KCAR 290104 AAA
TAFCAR
TAF AMD
KCAR 290104Z 2901/2924 VRB03KT P6SM BKN015
     FM290200 34004KT P6SM SCT015 BKN100
     FM290800 VRB03KT 2SM BR BKN045
     FM291000 34005KT P6SM SCT025 BKN050=

USA.gov is the U.S. government's official web portal to all federal, state and local government web resources and services.